sensor_id;sensor_type;location;lat;lon;timestamp;P1;durP1;ratioP1;P2;durP2;ratioP2
7517;SDS011;3800;48.922;9.444;2022-10-23T00:01:51;6.60;;;3.03;;
7517;SDS011;3800;48.922;9.444;2022-10-23T00:04:20;3.33;;;2.80;;
7517;SDS011;3800;48.922;9.444;2022-10-23T00:06:46;3.60;;;2.87;;
7517;SDS011;3800;48.922;9.444;2022-10-23T00:09:15;4.10;;;3.30;;
7517;SDS011;3800;48.922;9.444;2022-10-23T00:11:41;4.10;;;2.93;;
7517;SDS011;3800;48.922;9.444;2022-10-23T00:14:09;3.93;;;2.93;;
7517;SDS011;3800;48.922;9.444;2022-10-23T00:16:37;7.80;;;3.17;;
7517;SDS011;3800;48.922;9.444;2022-10-23T00:19:04;3.47;;;2.83;;
7517;SDS011;3800;48.922;9.444;2022-10-23T00:21:32;6.87;;;3.13;;
7517;SDS011;3800;48.922;9.444;2022-10-23T00:23:59;5.07;;;2.93;;
7517;SDS011;3800;48.922;9.444;2022-10-23T00:26:27;4.60;;;3.20;;
7517;SDS011;3800;48.922;9.444;2022-10-23T00:28:55;6.17;;;2.70;;
7517;SDS011;3800;48.922;9.444;2022-10-23T00:31:23;7.20;;;3.03;;
7517;SDS011;3800;48.922;9.444;2022-10-23T00:33:50;4.30;;;2.83;;
7517;SDS011;3800;48.922;9.444;2022-10-23T00:36:18;5.50;;;3.17;;
7517;SDS011;3800;48.922;9.444;2022-10-23T00:38:46;4.23;;;2.77;;
7517;SDS011;3800;48.922;9.444;2022-10-23T00:41:15;9.67;;;3.43;;
7517;SDS011;3800;48.922;9.444;2022-10-23T00:46:21;3.10;;;2.53;;
7517;SDS011;3800;48.922;9.444;2022-10-23T00:48:48;5.83;;;2.83;;
7517;SDS011;3800;48.922;9.444;2022-10-23T00:51:16;2.97;;;2.60;;
7517;SDS011;3800;48.922;9.444;2022-10-23T00:53:44;3.87;;;2.67;;
7517;SDS011;3800;48.922;9.444;2022-10-23T00:56:12;3.57;;;2.67;;
7517;SDS011;3800;48.922;9.444;2022-10-23T00:58:40;4.07;;;2.60;;
7517;SDS011;3800;48.922;9.444;2022-10-23T01:01:14;4.77;;;3.07;;
7517;SDS011;3800;48.922;9.444;2022-10-23T01:03:41;6.13;;;2.83;;
7517;SDS011;3800;48.922;9.444;2022-10-23T01:11:47;3.97;;;3.10;;
7517;SDS011;3800;48.922;9.444;2022-10-23T01:14:17;3.17;;;2.87;;
7517;SDS011;3800;48.922;9.444;2022-10-23T01:16:45;6.73;;;3.30;;
7517;SDS011;3800;48.922;9.444;2022-10-23T01:19:20;6.00;;;3.40;;
7517;SDS011;3800;48.922;9.444;2022-10-23T01:22:02;7.70;;;3.80;;
7517;SDS011;3800;48.922;9.444;2022-10-23T01:24:34;11.70;;;3.53;;
7517;SDS011;3800;48.922;9.444;2022-10-23T01:30:02;4.80;;;3.30;;
7517;SDS011;3800;48.922;9.444;2022-10-23T01:35:11;4.80;;;3.60;;
7517;SDS011;3800;48.922;9.444;2022-10-23T01:37:39;7.60;;;3.77;;
7517;SDS011;3800;48.922;9.444;2022-10-23T01:40:07;9.43;;;3.70;;
7517;SDS011;3800;48.922;9.444;2022-10-23T01:42:36;5.63;;;3.40;;
7517;SDS011;3800;48.922;9.444;2022-10-23T01:45:36;3.87;;;3.30;;
7517;SDS011;3800;48.922;9.444;2022-10-23T01:47:45;6.30;;;3.67;;
7517;SDS011;3800;48.922;9.444;2022-10-23T01:50:12;5.80;;;3.60;;
7517;SDS011;3800;48.922;9.444;2022-10-23T01:52:40;4.77;;;3.53;;
7517;SDS011;3800;48.922;9.444;2022-10-23T01:55:08;3.87;;;3.37;;
7517;SDS011;3800;48.922;9.444;2022-10-23T01:57:36;7.47;;;4.20;;
7517;SDS011;3800;48.922;9.444;2022-10-23T02:00:06;5.80;;;3.93;;
7517;SDS011;3800;48.922;9.444;2022-10-23T02:02:33;6.20;;;4.23;;
7517;SDS011;3800;48.922;9.444;2022-10-23T02:05:04;7.50;;;3.73;;
7517;SDS011;3800;48.922;9.444;2022-10-23T02:07:33;4.80;;;4.00;;
7517;SDS011;3800;48.922;9.444;2022-10-23T02:10:01;5.43;;;4.00;;
7517;SDS011;3800;48.922;9.444;2022-10-23T02:12:33;8.83;;;3.60;;
7517;SDS011;3800;48.922;9.444;2022-10-23T02:15:02;5.70;;;3.50;;
7517;SDS011;3800;48.922;9.444;2022-10-23T02:17:32;3.53;;;3.23;;
7517;SDS011;3800;48.922;9.444;2022-10-23T02:20:15;7.50;;;3.23;;
7517;SDS011;3800;48.922;9.444;2022-10-23T02:22:41;5.17;;;3.33;;
7517;SDS011;3800;48.922;9.444;2022-10-23T02:25:10;9.37;;;4.13;;
7517;SDS011;3800;48.922;9.444;2022-10-23T02:27:39;6.67;;;3.63;;
7517;SDS011;3800;48.922;9.444;2022-10-23T02:30:06;6.33;;;3.30;;
7517;SDS011;3800;48.922;9.444;2022-10-23T02:32:35;6.47;;;3.67;;
7517;SDS011;3800;48.922;9.444;2022-10-23T02:35:02;4.47;;;3.10;;
7517;SDS011;3800;48.922;9.444;2022-10-23T02:37:30;4.57;;;3.10;;
7517;SDS011;3800;48.922;9.444;2022-10-23T02:39:58;4.63;;;3.20;;
7517;SDS011;3800;48.922;9.444;2022-10-23T02:42:27;5.43;;;3.30;;
7517;SDS011;3800;48.922;9.444;2022-10-23T02:44:54;5.10;;;3.10;;
7517;SDS011;3800;48.922;9.444;2022-10-23T02:47:29;4.10;;;3.00;;
7517;SDS011;3800;48.922;9.444;2022-10-23T02:50:12;3.27;;;2.70;;
7517;SDS011;3800;48.922;9.444;2022-10-23T02:55:30;10.23;;;3.00;;
7517;SDS011;3800;48.922;9.444;2022-10-23T02:57:56;4.70;;;2.53;;
7517;SDS011;3800;48.922;9.444;2022-10-23T03:00:23;5.20;;;2.80;;
7517;SDS011;3800;48.922;9.444;2022-10-23T03:02:53;5.97;;;2.80;;
7517;SDS011;3800;48.922;9.444;2022-10-23T03:05:30;6.57;;;2.80;;
7517;SDS011;3800;48.922;9.444;2022-10-23T03:07:58;3.37;;;2.77;;
7517;SDS011;3800;48.922;9.444;2022-10-23T03:10:25;4.77;;;3.13;;
7517;SDS011;3800;48.922;9.444;2022-10-23T03:12:53;8.13;;;3.40;;
7517;SDS011;3800;48.922;9.444;2022-10-23T03:15:20;5.33;;;3.20;;
7517;SDS011;3800;48.922;9.444;2022-10-23T03:17:48;5.87;;;3.47;;
7517;SDS011;3800;48.922;9.444;2022-10-23T03:20:16;5.70;;;3.30;;
7517;SDS011;3800;48.922;9.444;2022-10-23T03:22:43;6.93;;;3.43;;
7517;SDS011;3800;48.922;9.444;2022-10-23T03:25:11;4.93;;;3.40;;
7517;SDS011;3800;48.922;9.444;2022-10-23T03:27:39;5.63;;;2.90;;
7517;SDS011;3800;48.922;9.444;2022-10-23T03:30:07;3.03;;;2.70;;
7517;SDS011;3800;48.922;9.444;2022-10-23T03:32:35;4.43;;;3.40;;
7517;SDS011;3800;48.922;9.444;2022-10-23T03:35:03;4.33;;;3.37;;
7517;SDS011;3800;48.922;9.444;2022-10-23T03:37:30;5.80;;;3.50;;
7517;SDS011;3800;48.922;9.444;2022-10-23T03:39:58;6.50;;;3.30;;
7517;SDS011;3800;48.922;9.444;2022-10-23T03:42:26;7.77;;;3.53;;
7517;SDS011;3800;48.922;9.444;2022-10-23T03:44:53;5.50;;;2.90;;
7517;SDS011;3800;48.922;9.444;2022-10-23T03:47:22;5.77;;;3.30;;
7517;SDS011;3800;48.922;9.444;2022-10-23T03:49:49;6.17;;;3.40;;
7517;SDS011;3800;48.922;9.444;2022-10-23T03:52:17;4.60;;;3.00;;
7517;SDS011;3800;48.922;9.444;2022-10-23T03:54:45;4.10;;;3.30;;
7517;SDS011;3800;48.922;9.444;2022-10-23T03:57:13;5.00;;;3.30;;
7517;SDS011;3800;48.922;9.444;2022-10-23T03:59:41;4.10;;;3.40;;
7517;SDS011;3800;48.922;9.444;2022-10-23T04:02:09;7.00;;;3.77;;
7517;SDS011;3800;48.922;9.444;2022-10-23T04:04:36;4.00;;;3.20;;
7517;SDS011;3800;48.922;9.444;2022-10-23T04:07:04;5.70;;;3.07;;
7517;SDS011;3800;48.922;9.444;2022-10-23T04:09:32;5.23;;;2.90;;
7517;SDS011;3800;48.922;9.444;2022-10-23T04:12:00;4.33;;;3.00;;
7517;SDS011;3800;48.922;9.444;2022-10-23T04:14:27;7.13;;;2.97;;
7517;SDS011;3800;48.922;9.444;2022-10-23T04:16:56;3.40;;;3.10;;
7517;SDS011;3800;48.922;9.444;2022-10-23T04:19:23;7.83;;;3.03;;
7517;SDS011;3800;48.922;9.444;2022-10-23T04:21:52;4.77;;;2.90;;
7517;SDS011;3800;48.922;9.444;2022-10-23T04:24:19;6.47;;;2.93;;
7517;SDS011;3800;48.922;9.444;2022-10-23T04:26:47;8.57;;;3.30;;
7517;SDS011;3800;48.922;9.444;2022-10-23T04:29:15;3.83;;;3.00;;
7517;SDS011;3800;48.922;9.444;2022-10-23T04:31:42;7.30;;;3.03;;
7517;SDS011;3800;48.922;9.444;2022-10-23T04:34:10;5.07;;;2.90;;
7517;SDS011;3800;48.922;9.444;2022-10-23T04:36:37;7.10;;;3.00;;
7517;SDS011;3800;48.922;9.444;2022-10-23T04:39:05;4.60;;;2.97;;
7517;SDS011;3800;48.922;9.444;2022-10-23T04:41:33;5.60;;;3.10;;
7517;SDS011;3800;48.922;9.444;2022-10-23T04:44:01;6.70;;;3.30;;
7517;SDS011;3800;48.922;9.444;2022-10-23T04:46:29;5.17;;;2.97;;
7517;SDS011;3800;48.922;9.444;2022-10-23T04:48:56;3.83;;;2.90;;
7517;SDS011;3800;48.922;9.444;2022-10-23T04:51:24;5.23;;;3.07;;
7517;SDS011;3800;48.922;9.444;2022-10-23T04:53:52;4.57;;;3.30;;
7517;SDS011;3800;48.922;9.444;2022-10-23T04:56:19;4.83;;;2.97;;
7517;SDS011;3800;48.922;9.444;2022-10-23T04:58:47;8.40;;;3.47;;
7517;SDS011;3800;48.922;9.444;2022-10-23T05:01:15;4.70;;;3.10;;
7517;SDS011;3800;48.922;9.444;2022-10-23T05:03:43;4.23;;;3.17;;
7517;SDS011;3800;48.922;9.444;2022-10-23T05:06:11;3.47;;;3.00;;
7517;SDS011;3800;48.922;9.444;2022-10-23T05:08:38;5.57;;;3.17;;
7517;SDS011;3800;48.922;9.444;2022-10-23T05:11:06;6.53;;;3.10;;
7517;SDS011;3800;48.922;9.444;2022-10-23T05:13:33;4.20;;;3.03;;
7517;SDS011;3800;48.922;9.444;2022-10-23T05:16:01;3.23;;;2.70;;
7517;SDS011;3800;48.922;9.444;2022-10-23T05:18:31;7.33;;;3.00;;
7517;SDS011;3800;48.922;9.444;2022-10-23T05:21:05;3.47;;;3.00;;
7517;SDS011;3800;48.922;9.444;2022-10-23T05:23:32;4.77;;;3.53;;
7517;SDS011;3800;48.922;9.444;2022-10-23T05:26:00;5.37;;;3.00;;
7517;SDS011;3800;48.922;9.444;2022-10-23T05:28:27;3.47;;;3.00;;
7517;SDS011;3800;48.922;9.444;2022-10-23T05:30:56;3.90;;;2.60;;
7517;SDS011;3800;48.922;9.444;2022-10-23T05:33:23;3.50;;;3.00;;
7517;SDS011;3800;48.922;9.444;2022-10-23T05:35:51;3.73;;;2.80;;
7517;SDS011;3800;48.922;9.444;2022-10-23T05:38:18;4.13;;;3.30;;
7517;SDS011;3800;48.922;9.444;2022-10-23T05:40:47;3.67;;;3.00;;
7517;SDS011;3800;48.922;9.444;2022-10-23T05:43:15;4.37;;;3.63;;
7517;SDS011;3800;48.922;9.444;2022-10-23T05:45:43;5.37;;;3.53;;
7517;SDS011;3800;48.922;9.444;2022-10-23T05:48:13;4.13;;;2.87;;
7517;SDS011;3800;48.922;9.444;2022-10-23T05:50:38;3.53;;;2.73;;
7517;SDS011;3800;48.922;9.444;2022-10-23T05:53:06;4.00;;;2.70;;
7517;SDS011;3800;48.922;9.444;2022-10-23T05:55:34;3.90;;;3.17;;
7517;SDS011;3800;48.922;9.444;2022-10-23T05:58:01;3.60;;;3.07;;
7517;SDS011;3800;48.922;9.444;2022-10-23T06:00:29;4.57;;;2.83;;
7517;SDS011;3800;48.922;9.444;2022-10-23T06:02:59;5.00;;;2.43;;
7517;SDS011;3800;48.922;9.444;2022-10-23T06:05:26;3.23;;;2.80;;
7517;SDS011;3800;48.922;9.444;2022-10-23T06:07:57;3.90;;;2.93;;
7517;SDS011;3800;48.922;9.444;2022-10-23T06:10:24;5.40;;;2.97;;
7517;SDS011;3800;48.922;9.444;2022-10-23T06:12:51;3.17;;;2.87;;
7517;SDS011;3800;48.922;9.444;2022-10-23T06:15:19;5.33;;;3.13;;
7517;SDS011;3800;48.922;9.444;2022-10-23T06:17:46;2.57;;;2.37;;
7517;SDS011;3800;48.922;9.444;2022-10-23T06:20:14;3.67;;;2.40;;
7517;SDS011;3800;48.922;9.444;2022-10-23T06:22:42;4.50;;;2.50;;
7517;SDS011;3800;48.922;9.444;2022-10-23T06:25:09;2.80;;;2.60;;
7517;SDS011;3800;48.922;9.444;2022-10-23T06:27:37;3.10;;;2.80;;
7517;SDS011;3800;48.922;9.444;2022-10-23T06:30:05;4.97;;;2.50;;
7517;SDS011;3800;48.922;9.444;2022-10-23T06:32:33;3.37;;;2.80;;
7517;SDS011;3800;48.922;9.444;2022-10-23T06:35:01;4.07;;;3.00;;
7517;SDS011;3800;48.922;9.444;2022-10-23T06:37:28;3.20;;;2.90;;
7517;SDS011;3800;48.922;9.444;2022-10-23T06:39:56;3.20;;;2.90;;
7517;SDS011;3800;48.922;9.444;2022-10-23T06:42:24;4.77;;;3.50;;
7517;SDS011;3800;48.922;9.444;2022-10-23T06:44:51;3.97;;;3.43;;
7517;SDS011;3800;48.922;9.444;2022-10-23T06:47:19;4.07;;;3.10;;
7517;SDS011;3800;48.922;9.444;2022-10-23T06:49:47;6.47;;;5.60;;
7517;SDS011;3800;48.922;9.444;2022-10-23T06:52:15;5.90;;;4.40;;
7517;SDS011;3800;48.922;9.444;2022-10-23T06:54:43;7.50;;;4.00;;
7517;SDS011;3800;48.922;9.444;2022-10-23T06:57:10;3.97;;;3.50;;
7517;SDS011;3800;48.922;9.444;2022-10-23T06:59:38;5.07;;;3.40;;
7517;SDS011;3800;48.922;9.444;2022-10-23T07:02:05;4.00;;;3.47;;
7517;SDS011;3800;48.922;9.444;2022-10-23T07:04:33;4.70;;;3.17;;
7517;SDS011;3800;48.922;9.444;2022-10-23T07:07:01;9.17;;;4.17;;
7517;SDS011;3800;48.922;9.444;2022-10-23T07:09:28;3.47;;;3.00;;
7517;SDS011;3800;48.922;9.444;2022-10-23T07:11:56;8.33;;;4.67;;
7517;SDS011;3800;48.922;9.444;2022-10-23T07:14:24;8.57;;;3.63;;
7517;SDS011;3800;48.922;9.444;2022-10-23T07:16:51;8.43;;;3.60;;
7517;SDS011;3800;48.922;9.444;2022-10-23T07:19:19;6.40;;;4.40;;
7517;SDS011;3800;48.922;9.444;2022-10-23T07:21:47;5.00;;;3.30;;
7517;SDS011;3800;48.922;9.444;2022-10-23T07:24:15;6.63;;;3.57;;
7517;SDS011;3800;48.922;9.444;2022-10-23T07:26:43;5.80;;;4.47;;
7517;SDS011;3800;48.922;9.444;2022-10-23T07:29:11;9.90;;;6.13;;
7517;SDS011;3800;48.922;9.444;2022-10-23T07:31:38;9.67;;;6.77;;
7517;SDS011;3800;48.922;9.444;2022-10-23T07:34:05;7.83;;;6.63;;
7517;SDS011;3800;48.922;9.444;2022-10-23T07:36:33;5.40;;;4.90;;
7517;SDS011;3800;48.922;9.444;2022-10-23T07:39:01;9.87;;;5.57;;
7517;SDS011;3800;48.922;9.444;2022-10-23T07:41:28;6.77;;;4.50;;
7517;SDS011;3800;48.922;9.444;2022-10-23T07:43:56;7.63;;;5.13;;
7517;SDS011;3800;48.922;9.444;2022-10-23T07:46:24;8.23;;;5.73;;
7517;SDS011;3800;48.922;9.444;2022-10-23T07:48:51;7.13;;;6.00;;
7517;SDS011;3800;48.922;9.444;2022-10-23T07:51:19;14.87;;;10.20;;
7517;SDS011;3800;48.922;9.444;2022-10-23T07:53:47;22.40;;;12.53;;
7517;SDS011;3800;48.922;9.444;2022-10-23T07:56:17;38.63;;;19.30;;
7517;SDS011;3800;48.922;9.444;2022-10-23T07:58:43;24.33;;;13.60;;
7517;SDS011;3800;48.922;9.444;2022-10-23T08:01:15;29.23;;;15.67;;
7517;SDS011;3800;48.922;9.444;2022-10-23T08:03:43;21.63;;;14.20;;
7517;SDS011;3800;48.922;9.444;2022-10-23T08:06:10;19.47;;;11.73;;
7517;SDS011;3800;48.922;9.444;2022-10-23T08:08:38;12.43;;;7.73;;
7517;SDS011;3800;48.922;9.444;2022-10-23T08:11:06;9.27;;;4.67;;
7517;SDS011;3800;48.922;9.444;2022-10-23T08:13:33;20.27;;;13.50;;
7517;SDS011;3800;48.922;9.444;2022-10-23T08:16:01;9.10;;;5.60;;
7517;SDS011;3800;48.922;9.444;2022-10-23T08:18:29;7.97;;;6.53;;
7517;SDS011;3800;48.922;9.444;2022-10-23T08:20:59;10.27;;;8.50;;
7517;SDS011;3800;48.922;9.444;2022-10-23T08:23:26;11.43;;;10.00;;
7517;SDS011;3800;48.922;9.444;2022-10-23T08:25:57;10.20;;;8.20;;
7517;SDS011;3800;48.922;9.444;2022-10-23T08:28:24;8.13;;;7.33;;
7517;SDS011;3800;48.922;9.444;2022-10-23T08:30:51;7.47;;;5.63;;
7517;SDS011;3800;48.922;9.444;2022-10-23T08:33:19;12.47;;;4.50;;
7517;SDS011;3800;48.922;9.444;2022-10-23T08:35:47;4.63;;;4.10;;
7517;SDS011;3800;48.922;9.444;2022-10-23T08:38:14;6.90;;;3.70;;
7517;SDS011;3800;48.922;9.444;2022-10-23T08:40:43;7.77;;;3.50;;
7517;SDS011;3800;48.922;9.444;2022-10-23T08:45:57;5.77;;;3.40;;
7517;SDS011;3800;48.922;9.444;2022-10-23T08:48:25;4.43;;;2.60;;
7517;SDS011;3800;48.922;9.444;2022-10-23T08:50:54;2.80;;;2.30;;
7517;SDS011;3800;48.922;9.444;2022-10-23T08:56:02;5.97;;;3.10;;
7517;SDS011;3800;48.922;9.444;2022-10-23T08:58:33;15.63;;;6.37;;
7517;SDS011;3800;48.922;9.444;2022-10-23T09:04:10;8.30;;;3.10;;
7517;SDS011;3800;48.922;9.444;2022-10-23T09:06:39;4.13;;;2.50;;
7517;SDS011;3800;48.922;9.444;2022-10-23T09:09:19;2.60;;;2.13;;
7517;SDS011;3800;48.922;9.444;2022-10-23T09:12:00;4.87;;;2.70;;
7517;SDS011;3800;48.922;9.444;2022-10-23T09:14:46;5.83;;;2.63;;
7517;SDS011;3800;48.922;9.444;2022-10-23T09:17:15;4.13;;;3.00;;
7517;SDS011;3800;48.922;9.444;2022-10-23T09:19:54;3.87;;;2.83;;
7517;SDS011;3800;48.922;9.444;2022-10-23T09:22:26;2.93;;;2.33;;
7517;SDS011;3800;48.922;9.444;2022-10-23T09:24:53;8.33;;;3.10;;
7517;SDS011;3800;48.922;9.444;2022-10-23T09:27:21;8.03;;;2.73;;
7517;SDS011;3800;48.922;9.444;2022-10-23T09:29:50;2.80;;;2.10;;
7517;SDS011;3800;48.922;9.444;2022-10-23T09:32:17;3.07;;;2.40;;
7517;SDS011;3800;48.922;9.444;2022-10-23T09:34:50;2.70;;;2.10;;
7517;SDS011;3800;48.922;9.444;2022-10-23T09:37:21;3.30;;;2.00;;
7517;SDS011;3800;48.922;9.444;2022-10-23T09:39:59;3.13;;;2.37;;
7517;SDS011;3800;48.922;9.444;2022-10-23T09:42:22;2.70;;;1.93;;
7517;SDS011;3800;48.922;9.444;2022-10-23T09:44:49;3.10;;;1.80;;
7517;SDS011;3800;48.922;9.444;2022-10-23T09:47:17;4.13;;;1.53;;
7517;SDS011;3800;48.922;9.444;2022-10-23T09:49:46;2.87;;;1.70;;
7517;SDS011;3800;48.922;9.444;2022-10-23T09:52:20;2.27;;;1.60;;
7517;SDS011;3800;48.922;9.444;2022-10-23T09:54:54;2.00;;;1.33;;
7517;SDS011;3800;48.922;9.444;2022-10-23T10:00:00;2.77;;;1.30;;
7517;SDS011;3800;48.922;9.444;2022-10-23T10:02:30;2.80;;;1.50;;
7517;SDS011;3800;48.922;9.444;2022-10-23T10:04:57;1.27;;;1.13;;
7517;SDS011;3800;48.922;9.444;2022-10-23T10:07:25;1.20;;;1.10;;
7517;SDS011;3800;48.922;9.444;2022-10-23T10:09:52;1.50;;;1.17;;
7517;SDS011;3800;48.922;9.444;2022-10-23T10:12:29;3.10;;;1.30;;
7517;SDS011;3800;48.922;9.444;2022-10-23T10:15:02;2.80;;;1.10;;
7517;SDS011;3800;48.922;9.444;2022-10-23T10:17:38;2.77;;;1.40;;
7517;SDS011;3800;48.922;9.444;2022-10-23T10:20:43;1.70;;;1.27;;
7517;SDS011;3800;48.922;9.444;2022-10-23T10:23:01;2.20;;;1.20;;
7517;SDS011;3800;48.922;9.444;2022-10-23T10:25:33;2.87;;;1.20;;
7517;SDS011;3800;48.922;9.444;2022-10-23T10:31:22;2.57;;;1.10;;
7517;SDS011;3800;48.922;9.444;2022-10-23T10:33:46;4.30;;;1.13;;
7517;SDS011;3800;48.922;9.444;2022-10-23T10:36:17;1.57;;;0.90;;
7517;SDS011;3800;48.922;9.444;2022-10-23T10:38:47;1.27;;;0.97;;
7517;SDS011;3800;48.922;9.444;2022-10-23T10:41:19;1.10;;;1.00;;
7517;SDS011;3800;48.922;9.444;2022-10-23T10:44:12;1.30;;;1.10;;
7517;SDS011;3800;48.922;9.444;2022-10-23T10:46:45;1.80;;;0.93;;
7517;SDS011;3800;48.922;9.444;2022-10-23T10:49:18;1.07;;;0.87;;
7517;SDS011;3800;48.922;9.444;2022-10-23T10:51:47;2.50;;;0.90;;
7517;SDS011;3800;48.922;9.444;2022-10-23T10:54:23;1.33;;;0.87;;
7517;SDS011;3800;48.922;9.444;2022-10-23T10:56:45;2.90;;;1.20;;
7517;SDS011;3800;48.922;9.444;2022-10-23T10:59:20;3.73;;;1.37;;
7517;SDS011;3800;48.922;9.444;2022-10-23T11:01:51;0.83;;;0.80;;
7517;SDS011;3800;48.922;9.444;2022-10-23T11:04:38;4.23;;;1.23;;
7517;SDS011;3800;48.922;9.444;2022-10-23T11:07:14;1.80;;;1.20;;
7517;SDS011;3800;48.922;9.444;2022-10-23T11:09:41;2.07;;;1.00;;
7517;SDS011;3800;48.922;9.444;2022-10-23T11:12:20;1.03;;;0.90;;
7517;SDS011;3800;48.922;9.444;2022-10-23T11:14:49;1.00;;;0.90;;
7517;SDS011;3800;48.922;9.444;2022-10-23T11:17:22;2.70;;;1.00;;
7517;SDS011;3800;48.922;9.444;2022-10-23T11:20:05;1.10;;;0.80;;
7517;SDS011;3800;48.922;9.444;2022-10-23T11:22:34;2.27;;;1.03;;
7517;SDS011;3800;48.922;9.444;2022-10-23T11:27:57;1.53;;;0.90;;
7517;SDS011;3800;48.922;9.444;2022-10-23T11:30:34;1.40;;;0.80;;
7517;SDS011;3800;48.922;9.444;2022-10-23T11:33:42;1.10;;;1.00;;
7517;SDS011;3800;48.922;9.444;2022-10-23T11:36:10;1.10;;;0.97;;
7517;SDS011;3800;48.922;9.444;2022-10-23T11:38:39;1.27;;;1.17;;
7517;SDS011;3800;48.922;9.444;2022-10-23T11:43:52;1.30;;;0.93;;
7517;SDS011;3800;48.922;9.444;2022-10-23T11:49:05;1.97;;;1.10;;
7517;SDS011;3800;48.922;9.444;2022-10-23T11:51:34;1.77;;;1.00;;
7517;SDS011;3800;48.922;9.444;2022-10-23T11:54:22;3.20;;;1.10;;
7517;SDS011;3800;48.922;9.444;2022-10-23T11:56:50;1.17;;;1.00;;
7517;SDS011;3800;48.922;9.444;2022-10-23T11:59:24;2.40;;;1.00;;
7517;SDS011;3800;48.922;9.444;2022-10-23T12:01:48;1.30;;;0.90;;
7517;SDS011;3800;48.922;9.444;2022-10-23T12:04:21;1.67;;;0.97;;
7517;SDS011;3800;48.922;9.444;2022-10-23T12:06:49;1.20;;;0.90;;
7517;SDS011;3800;48.922;9.444;2022-10-23T12:09:21;1.67;;;1.27;;
7517;SDS011;3800;48.922;9.444;2022-10-23T12:11:59;2.63;;;1.00;;
7517;SDS011;3800;48.922;9.444;2022-10-23T12:16:51;1.97;;;1.10;;
7517;SDS011;3800;48.922;9.444;2022-10-23T12:19:19;1.97;;;1.10;;
7517;SDS011;3800;48.922;9.444;2022-10-23T12:21:50;2.13;;;1.10;;
7517;SDS011;3800;48.922;9.444;2022-10-23T12:27:03;3.60;;;1.10;;
7517;SDS011;3800;48.922;9.444;2022-10-23T12:29:42;1.30;;;1.20;;
7517;SDS011;3800;48.922;9.444;2022-10-23T12:35:02;3.90;;;1.43;;
7517;SDS011;3800;48.922;9.444;2022-10-23T12:37:37;2.60;;;1.00;;
7517;SDS011;3800;48.922;9.444;2022-10-23T12:40:05;1.60;;;1.20;;
7517;SDS011;3800;48.922;9.444;2022-10-23T12:42:32;1.80;;;1.20;;
7517;SDS011;3800;48.922;9.444;2022-10-23T12:45:00;1.20;;;1.10;;
7517;SDS011;3800;48.922;9.444;2022-10-23T12:47:28;3.23;;;1.10;;
7517;SDS011;3800;48.922;9.444;2022-10-23T12:49:56;2.30;;;1.20;;
7517;SDS011;3800;48.922;9.444;2022-10-23T12:52:23;1.47;;;1.30;;
7517;SDS011;3800;48.922;9.444;2022-10-23T12:54:51;2.87;;;1.30;;
7517;SDS011;3800;48.922;9.444;2022-10-23T12:57:22;2.47;;;1.10;;
7517;SDS011;3800;48.922;9.444;2022-10-23T12:59:48;2.33;;;1.20;;
7517;SDS011;3800;48.922;9.444;2022-10-23T13:02:22;4.20;;;1.30;;
7517;SDS011;3800;48.922;9.444;2022-10-23T13:04:52;2.20;;;1.20;;
7517;SDS011;3800;48.922;9.444;2022-10-23T13:07:20;4.60;;;1.50;;
7517;SDS011;3800;48.922;9.444;2022-10-23T13:09:47;3.23;;;1.37;;
7517;SDS011;3800;48.922;9.444;2022-10-23T13:12:17;2.87;;;1.20;;
7517;SDS011;3800;48.922;9.444;2022-10-23T13:17:31;1.83;;;1.10;;
7517;SDS011;3800;48.922;9.444;2022-10-23T13:19:50;3.33;;;1.20;;
7517;SDS011;3800;48.922;9.444;2022-10-23T13:22:18;5.37;;;1.20;;
7517;SDS011;3800;48.922;9.444;2022-10-23T13:24:46;2.20;;;1.60;;
7517;SDS011;3800;48.922;9.444;2022-10-23T13:29:51;1.20;;;1.10;;
7517;SDS011;3800;48.922;9.444;2022-10-23T13:32:21;1.70;;;1.17;;
7517;SDS011;3800;48.922;9.444;2022-10-23T13:34:50;1.70;;;1.30;;
7517;SDS011;3800;48.922;9.444;2022-10-23T13:37:23;2.10;;;1.40;;
7517;SDS011;3800;48.922;9.444;2022-10-23T13:42:25;1.40;;;1.00;;
7517;SDS011;3800;48.922;9.444;2022-10-23T13:44:53;2.20;;;1.00;;
7517;SDS011;3800;48.922;9.444;2022-10-23T13:47:21;1.00;;;0.90;;
7517;SDS011;3800;48.922;9.444;2022-10-23T13:49:49;3.83;;;1.10;;
7517;SDS011;3800;48.922;9.444;2022-10-23T13:52:18;1.40;;;1.20;;
7517;SDS011;3800;48.922;9.444;2022-10-23T13:54:44;1.77;;;1.20;;
7517;SDS011;3800;48.922;9.444;2022-10-23T13:57:12;1.10;;;1.00;;
7517;SDS011;3800;48.922;9.444;2022-10-23T13:59:39;2.80;;;1.10;;
7517;SDS011;3800;48.922;9.444;2022-10-23T14:02:17;1.13;;;1.00;;
7517;SDS011;3800;48.922;9.444;2022-10-23T14:04:41;1.57;;;0.90;;
7517;SDS011;3800;48.922;9.444;2022-10-23T14:07:09;3.43;;;1.17;;
7517;SDS011;3800;48.922;9.444;2022-10-23T14:09:36;2.13;;;1.07;;
7517;SDS011;3800;48.922;9.444;2022-10-23T14:12:04;1.40;;;0.90;;
7517;SDS011;3800;48.922;9.444;2022-10-23T14:14:31;1.20;;;1.10;;
7517;SDS011;3800;48.922;9.444;2022-10-23T14:17:00;4.13;;;1.20;;
7517;SDS011;3800;48.922;9.444;2022-10-23T14:19:28;4.33;;;1.97;;
7517;SDS011;3800;48.922;9.444;2022-10-23T14:21:55;3.67;;;2.00;;
7517;SDS011;3800;48.922;9.444;2022-10-23T14:24:23;2.77;;;1.67;;
7517;SDS011;3800;48.922;9.444;2022-10-23T14:26:50;1.53;;;1.20;;
7517;SDS011;3800;48.922;9.444;2022-10-23T14:29:18;1.53;;;1.20;;
7517;SDS011;3800;48.922;9.444;2022-10-23T14:31:46;1.93;;;1.20;;
7517;SDS011;3800;48.922;9.444;2022-10-23T14:34:13;1.57;;;1.23;;
7517;SDS011;3800;48.922;9.444;2022-10-23T14:36:41;2.57;;;1.20;;
7517;SDS011;3800;48.922;9.444;2022-10-23T14:39:09;1.73;;;1.20;;
7517;SDS011;3800;48.922;9.444;2022-10-23T14:41:36;1.60;;;1.30;;
7517;SDS011;3800;48.922;9.444;2022-10-23T14:44:05;4.37;;;1.40;;
7517;SDS011;3800;48.922;9.444;2022-10-23T14:46:32;2.30;;;1.10;;
7517;SDS011;3800;48.922;9.444;2022-10-23T14:49:00;2.60;;;1.33;;
7517;SDS011;3800;48.922;9.444;2022-10-23T14:51:28;2.07;;;1.20;;
7517;SDS011;3800;48.922;9.444;2022-10-23T14:53:56;1.73;;;1.23;;
7517;SDS011;3800;48.922;9.444;2022-10-23T14:56:23;1.60;;;1.23;;
7517;SDS011;3800;48.922;9.444;2022-10-23T14:58:50;3.80;;;1.40;;
7517;SDS011;3800;48.922;9.444;2022-10-23T15:01:18;1.67;;;1.10;;
7517;SDS011;3800;48.922;9.444;2022-10-23T15:03:46;2.80;;;1.17;;
7517;SDS011;3800;48.922;9.444;2022-10-23T15:06:13;1.77;;;1.30;;
7517;SDS011;3800;48.922;9.444;2022-10-23T15:08:41;1.80;;;1.30;;
7517;SDS011;3800;48.922;9.444;2022-10-23T15:11:09;2.67;;;1.30;;
7517;SDS011;3800;48.922;9.444;2022-10-23T15:13:36;2.83;;;1.50;;
7517;SDS011;3800;48.922;9.444;2022-10-23T15:16:06;4.30;;;1.40;;
7517;SDS011;3800;48.922;9.444;2022-10-23T15:18:33;2.23;;;1.50;;
7517;SDS011;3800;48.922;9.444;2022-10-23T15:21:03;3.57;;;1.60;;
7517;SDS011;3800;48.922;9.444;2022-10-23T15:23:32;3.33;;;1.63;;
7517;SDS011;3800;48.922;9.444;2022-10-23T15:26:00;3.10;;;1.77;;
7517;SDS011;3800;48.922;9.444;2022-10-23T15:28:27;3.13;;;1.90;;
7517;SDS011;3800;48.922;9.444;2022-10-23T15:30:54;3.63;;;1.80;;
7517;SDS011;3800;48.922;9.444;2022-10-23T15:33:22;4.97;;;1.93;;
7517;SDS011;3800;48.922;9.444;2022-10-23T15:35:50;3.20;;;2.00;;
7517;SDS011;3800;48.922;9.444;2022-10-23T15:38:17;5.03;;;1.60;;
7517;SDS011;3800;48.922;9.444;2022-10-23T15:40:45;5.43;;;1.80;;
7517;SDS011;3800;48.922;9.444;2022-10-23T15:43:13;4.67;;;1.97;;
7517;SDS011;3800;48.922;9.444;2022-10-23T15:45:40;2.30;;;1.67;;
7517;SDS011;3800;48.922;9.444;2022-10-23T15:48:08;2.77;;;1.50;;
7517;SDS011;3800;48.922;9.444;2022-10-23T15:50:35;3.13;;;1.83;;
7517;SDS011;3800;48.922;9.444;2022-10-23T15:53:03;4.53;;;1.80;;
7517;SDS011;3800;48.922;9.444;2022-10-23T15:55:31;3.10;;;1.77;;
7517;SDS011;3800;48.922;9.444;2022-10-23T15:57:58;3.53;;;1.80;;
7517;SDS011;3800;48.922;9.444;2022-10-23T16:00:26;3.47;;;2.27;;
7517;SDS011;3800;48.922;9.444;2022-10-23T16:02:53;2.70;;;1.93;;
7517;SDS011;3800;48.922;9.444;2022-10-23T16:05:21;3.50;;;2.00;;
7517;SDS011;3800;48.922;9.444;2022-10-23T16:07:49;2.90;;;1.77;;
7517;SDS011;3800;48.922;9.444;2022-10-23T16:10:17;2.83;;;1.77;;
7517;SDS011;3800;48.922;9.444;2022-10-23T16:12:46;1.90;;;1.40;;
7517;SDS011;3800;48.922;9.444;2022-10-23T16:15:13;2.93;;;1.80;;
7517;SDS011;3800;48.922;9.444;2022-10-23T16:17:41;4.97;;;2.10;;
7517;SDS011;3800;48.922;9.444;2022-10-23T16:20:09;2.77;;;1.73;;
7517;SDS011;3800;48.922;9.444;2022-10-23T16:22:37;4.53;;;1.63;;